KONL

Details ICAO KONL
Name THE ONEILL MUNI JOHN L BAKER FLD
Region United States
Timezone America/Chicago (UTC-6.0)
Plans Departing 0
Arriving 1
Stats Elevation 2,031 ft / 619 m (AMSL)
Location 42.469349° -98.687174°
Runways 2
Magnetic Variation 4.492° E
Sunrise 2017-12-13 13:57:28 UTC / 2017-12-13 07:57:28 Local
Sunset 2017-12-13 23:03:31 UTC / 2017-12-13 17:03:31 Local
Advertisement - Login to hide

Runways

ID Width Length Bearing (true) Bearing (mag) Surface Threshold Offset Overrun Length
04 121 ft / 37 m 3,067 ft / 935 m 46.30° 41.81° Grass 0 ft / 0 m 0 ft / 0 m
13 75 ft / 23 m 4,407 ft / 1,343 m 138.90° 134.41° Asphalt 0 ft / 0 m 0 ft / 0 m
22 121 ft / 37 m 3,067 ft / 935 m 226.30° 221.81° Grass 0 ft / 0 m 0 ft / 0 m
31 75 ft / 23 m 4,407 ft / 1,343 m 318.90° 314.41° Asphalt 0 ft / 0 m 0 ft / 0 m

Map

Weather


0- 5 10 15 20 25 30 35+ Temperature / ° C

Clouds and Precipitation
Forecast for 2017-12-13 18:00 UTC. Updated an hour ago

Ground ~20,000 ft ~40,000 ft Winds

METAR

KONL 131835Z AUTO 33022G32KT 10SM CLR 08/M02 A2988 RMK AO2 T00771016

TAF

Not found

Frequencies

Recorded 121.12 MHz AWOS 3
Unicom 122.80 MHz CTAF/UNICOM
Warning: Do not use this data for real-world aviation or navigation. No guarantee of current accuracy is given.